createdAt,value
2019-03-15T00:00:02.043Z,63.70
2019-03-15T00:06:48.559Z,64.10
2019-03-15T00:13:34.242Z,63.90
2019-03-15T00:20:19.411Z,64.40
2019-03-15T00:27:04.383Z,64.80
2019-03-15T00:33:50.634Z,65.10
2019-03-15T00:40:35.581Z,65.70
2019-03-15T00:47:21.155Z,66.70
2019-03-15T00:54:06.518Z,66.90
2019-03-15T01:00:52.225Z,67.50
2019-03-15T01:07:37.148Z,67.30
2019-03-15T01:14:23.049Z,67.40
2019-03-15T01:21:08.226Z,66.90
2019-03-15T01:27:53.066Z,67.00
2019-03-15T01:34:37.918Z,66.40
2019-03-15T01:41:22.831Z,65.90
2019-03-15T01:48:08.042Z,65.30
2019-03-15T01:54:52.887Z,65.10
2019-03-15T02:01:38.907Z,64.90
2019-03-15T02:08:23.971Z,63.50
2019-03-15T02:15:11.169Z,62.80
2019-03-15T02:21:57.271Z,62.30
2019-03-15T02:28:42.410Z,62.10
2019-03-15T02:35:27.259Z,61.50
2019-03-15T02:42:12.693Z,61.60
2019-03-15T02:48:58.774Z,61.90
2019-03-15T02:55:43.904Z,61.80
2019-03-15T03:02:28.754Z,61.90
2019-03-15T03:09:13.747Z,62.10
2019-03-15T03:15:58.667Z,62.40
2019-03-15T03:22:43.515Z,62.40
2019-03-15T03:29:29.434Z,64.20
2019-03-15T03:36:14.289Z,65.70
2019-03-15T03:42:59.223Z,67.20
2019-03-15T03:49:44.466Z,68.20
2019-03-15T03:56:29.387Z,69.60
2019-03-15T04:03:14.379Z,69.60
2019-03-15T04:09:59.260Z,68.60
2019-03-15T04:16:44.150Z,68.60
2019-03-15T04:23:29.007Z,69.80
2019-03-15T04:30:14.385Z,71.00
2019-03-15T04:36:59.232Z,73.10
2019-03-15T04:43:44.203Z,73.50
2019-03-15T04:50:29.315Z,74.40
2019-03-15T04:57:14.159Z,74.70
2019-03-15T05:03:59.259Z,74.30
2019-03-15T05:10:44.704Z,73.90
2019-03-15T05:17:29.679Z,73.60
2019-03-15T05:24:14.618Z,74.10
2019-03-15T05:30:59.635Z,73.80
2019-03-15T05:37:44.569Z,74.10
2019-03-15T05:44:29.467Z,74.30
2019-03-15T05:51:14.390Z,74.10
2019-03-15T05:57:59.248Z,74.00
2019-03-15T06:04:44.174Z,73.70
2019-03-15T06:11:29.032Z,73.50
2019-03-15T06:18:13.956Z,73.20
2019-03-15T06:24:58.872Z,73.70
2019-03-15T06:31:43.719Z,73.90
2019-03-15T06:38:28.616Z,74.20
2019-03-15T06:45:14.668Z,75.10
2019-03-15T06:51:59.583Z,75.00
2019-03-15T06:58:45.222Z,74.70
2019-03-15T07:05:30.637Z,74.60
2019-03-15T07:12:15.527Z,73.70
2019-03-15T07:19:00.439Z,73.40
2019-03-15T07:25:45.297Z,73.50
2019-03-15T07:32:31.072Z,72.20
2019-03-15T07:39:16.203Z,73.10
2019-03-15T07:46:01.063Z,72.40
2019-03-15T07:52:45.911Z,69.90
2019-03-15T07:59:30.754Z,71.20
2019-03-15T08:06:15.603Z,71.40
2019-03-15T08:13:00.452Z,70.20
2019-03-15T08:19:45.457Z,70.10
2019-03-15T08:26:30.500Z,69.90
2019-03-15T08:33:15.796Z,68.80
2019-03-15T08:40:00.775Z,69.10
2019-03-15T08:46:45.619Z,68.60
2019-03-15T08:53:30.458Z,70.80
2019-03-15T09:00:18.874Z,70.00
2019-03-15T09:07:03.798Z,68.60
2019-03-15T09:13:49.288Z,70.10
2019-03-15T09:20:34.470Z,67.40
2019-03-15T09:27:19.323Z,65.70
2019-03-15T09:34:04.164Z,65.80
2019-03-15T09:40:50.251Z,67.20
2019-03-15T09:47:35.095Z,67.00
2019-03-15T09:54:20.227Z,67.60
2019-03-15T10:01:05.588Z,68.80
2019-03-15T10:07:50.663Z,68.20
2019-03-15T10:14:35.502Z,67.80
2019-03-15T10:21:20.351Z,69.00
2019-03-15T10:28:05.475Z,67.70
2019-03-15T10:34:50.332Z,67.20
2019-03-15T10:41:38.107Z,67.50
2019-03-15T10:48:25.522Z,68.30
2019-03-15T10:55:09.282Z,67.30
2019-03-15T11:01:54.443Z,67.30
2019-03-15T11:08:39.300Z,67.00
2019-03-15T11:15:24.151Z,67.20
2019-03-15T11:22:09.103Z,67.70
2019-03-15T11:28:53.963Z,67.60
2019-03-15T11:35:39.864Z,66.70
2019-03-15T11:42:24.710Z,66.00
2019-03-15T11:49:09.571Z,65.20
2019-03-15T11:55:54.547Z,64.40
2019-03-15T12:02:40.888Z,63.90
2019-03-15T12:09:25.818Z,63.50
2019-03-15T12:16:10.676Z,63.30
2019-03-15T12:22:55.556Z,63.10
2019-03-15T12:29:40.658Z,62.80
2019-03-15T12:36:25.517Z,62.80
2019-03-15T12:43:10.411Z,62.20
2019-03-15T12:49:55.324Z,62.00
2019-03-15T12:56:53.263Z,62.40
2019-03-15T13:03:27.802Z,61.90
2019-03-15T13:10:23.461Z,62.20
2019-03-15T13:17:08.661Z,61.80
2019-03-15T13:23:53.630Z,61.90
2019-03-15T13:30:38.755Z,61.50
2019-03-15T13:37:24.272Z,61.40
2019-03-15T13:44:09.205Z,61.20
2019-03-15T13:50:54.329Z,61.10
2019-03-15T13:57:39.799Z,60.50
2019-03-15T14:04:25.148Z,60.30
2019-03-15T14:11:11.356Z,59.70
2019-03-15T14:17:59.983Z,60.10
2019-03-15T14:24:44.906Z,59.70
2019-03-15T14:31:29.767Z,59.50
2019-03-15T14:38:14.631Z,59.70
2019-03-15T14:44:59.701Z,59.60
2019-03-15T14:51:44.619Z,59.10
2019-03-15T14:58:29.549Z,58.40
2019-03-15T15:05:14.549Z,59.00
2019-03-15T15:11:59.557Z,58.60
2019-03-15T15:18:44.448Z,58.70
2019-03-15T15:25:29.551Z,57.80
2019-03-15T15:32:14.492Z,57.40
2019-03-15T15:38:59.482Z,56.40
2019-03-15T15:45:44.338Z,56.40
2019-03-15T15:52:29.275Z,56.80
2019-03-15T15:59:14.207Z,56.70
2019-03-15T16:05:59.063Z,56.90
2019-03-15T16:12:43.993Z,57.00
2019-03-15T16:19:28.936Z,57.70
2019-03-15T16:26:13.859Z,57.10
2019-03-15T16:32:58.715Z,57.60
2019-03-15T16:39:43.662Z,57.70
2019-03-15T16:46:28.603Z,58.00
2019-03-15T16:53:13.530Z,58.60
2019-03-15T17:00:00.375Z,58.60
2019-03-15T17:06:46.094Z,59.00
2019-03-15T17:13:31.091Z,59.30
2019-03-15T17:20:16.034Z,59.40
2019-03-15T17:27:00.978Z,59.20
2019-03-15T17:33:45.960Z,58.90
2019-03-15T17:40:31.016Z,59.10
2019-03-15T17:47:15.962Z,59.50
2019-03-15T17:54:00.828Z,59.90
2019-03-15T18:00:49.092Z,60.10
2019-03-15T18:07:34.023Z,60.30
2019-03-15T18:14:18.955Z,60.50
2019-03-15T18:21:04.048Z,60.60
2019-03-15T18:27:50.604Z,60.30
2019-03-15T18:34:35.539Z,60.20
2019-03-15T18:41:20.395Z,60.10
2019-03-15T18:48:05.318Z,60.00
2019-03-15T18:54:50.175Z,60.20
2019-03-15T19:01:35.099Z,60.10
2019-03-15T19:08:21.102Z,60.10
2019-03-15T19:15:11.711Z,60.20
2019-03-15T19:21:57.720Z,60.20
2019-03-15T19:28:42.799Z,60.30
2019-03-15T19:35:28.344Z,60.30
2019-03-15T19:42:14.384Z,60.30
2019-03-15T19:48:59.535Z,60.30
2019-03-15T19:55:44.534Z,60.20
2019-03-15T20:02:29.393Z,60.40
2019-03-15T20:09:15.321Z,60.50
2019-03-15T20:16:00.354Z,60.90
2019-03-15T20:22:45.268Z,61.30
2019-03-15T20:29:30.194Z,61.50
2019-03-15T20:36:15.417Z,62.00
2019-03-15T20:43:00.417Z,62.20
2019-03-15T20:49:45.271Z,62.50
2019-03-15T20:56:30.267Z,62.90
2019-03-15T21:03:15.300Z,63.10
2019-03-15T21:10:00.385Z,63.50
2019-03-15T21:16:45.456Z,63.80
2019-03-15T21:23:30.312Z,64.00
2019-03-15T21:30:16.878Z,64.50
2019-03-15T21:37:01.735Z,64.40
2019-03-15T21:43:47.122Z,64.10
2019-03-15T21:50:32.680Z,63.80
2019-03-15T21:57:17.830Z,63.60
2019-03-15T22:04:02.690Z,63.70
2019-03-15T22:10:47.593Z,63.50
2019-03-15T22:17:33.078Z,63.70
2019-03-15T22:24:18.585Z,63.80
2019-03-15T22:31:16.053Z,63.60
2019-03-15T22:37:50.180Z,63.30
2019-03-15T22:44:35.050Z,63.00
2019-03-15T22:51:20.620Z,62.80
2019-03-15T22:58:05.580Z,63.00
2019-03-15T23:04:50.526Z,63.30
2019-03-15T23:11:36.522Z,63.90
2019-03-15T23:18:21.712Z,63.90
2019-03-15T23:25:07.689Z,64.40
2019-03-15T23:31:52.622Z,64.50
2019-03-15T23:38:37.653Z,64.80
2019-03-15T23:45:22.924Z,65.40
2019-03-15T23:52:07.771Z,65.30
2019-03-15T23:58:52.803Z,65.40
